createdAt,value
2023-05-13T00:00:18.174Z,98724.66
2023-05-13T00:05:22.515Z,98728.22
2023-05-13T00:10:27.898Z,98729.53
2023-05-13T00:15:32.217Z,98725.94
2023-05-13T00:20:36.327Z,98730.34
2023-05-13T00:25:44.294Z,98728.03
2023-05-13T00:30:49.225Z,98724.13
2023-05-13T00:35:53.599Z,98735.38
2023-05-13T00:40:59.089Z,98735.03
2023-05-13T00:46:03.501Z,98732.72
2023-05-13T00:51:07.848Z,98746.53
2023-05-13T00:56:14.259Z,98744.53
2023-05-13T01:01:24.741Z,98754.56
2023-05-13T01:06:34.621Z,98762.50
2023-05-13T01:11:42.504Z,98759.75
2023-05-13T01:16:50.629Z,98768.72
2023-05-13T01:21:56.734Z,98773.09
2023-05-13T01:27:01.019Z,98778.34
2023-05-13T01:32:05.605Z,98781.63
2023-05-13T01:37:11.090Z,98780.53
2023-05-13T01:42:16.657Z,98786.97
2023-05-13T01:47:21.247Z,98787.31
2023-05-13T01:52:26.793Z,98786.13
2023-05-13T01:57:31.078Z,98786.91
2023-05-13T02:02:35.862Z,98783.44
2023-05-13T02:07:41.238Z,98777.25
2023-05-13T02:12:46.815Z,98776.69
2023-05-13T02:17:51.097Z,98779.25
2023-05-13T02:22:57.945Z,98765.13
2023-05-13T02:28:02.246Z,98756.50
2023-05-13T02:33:06.400Z,98756.34
2023-05-13T02:38:12.307Z,98753.38
2023-05-13T02:43:16.973Z,98746.84
2023-05-13T02:48:31.823Z,98759.03
2023-05-13T02:53:39.314Z,98762.31
2023-05-13T02:58:45.881Z,98770.81
2023-05-13T03:03:50.163Z,98770.44
2023-05-13T03:08:55.882Z,98777.31
2023-05-13T03:13:59.756Z,98789.41
2023-05-13T03:19:03.822Z,98791.22
2023-05-13T03:24:09.923Z,98783.44
2023-05-13T03:29:14.273Z,98780.03
2023-05-13T03:34:18.707Z,98800.16
2023-05-13T03:39:25.996Z,98796.94
2023-05-13T03:44:30.490Z,98796.63
2023-05-13T03:49:34.770Z,98798.66
2023-05-13T03:54:40.503Z,98809.44
2023-05-13T03:59:44.760Z,98815.16
2023-05-13T04:04:50.145Z,98820.69
2023-05-13T04:09:55.300Z,98819.84
2023-05-13T04:15:01.261Z,98821.03
2023-05-13T04:20:06.479Z,98832.91
2023-05-13T04:25:12.936Z,98831.44
2023-05-13T04:30:18.610Z,98836.72
2023-05-13T04:35:24.017Z,98843.03
2023-05-13T04:40:33.240Z,98843.56
2023-05-13T04:45:43.372Z,98853.97
2023-05-13T04:50:50.274Z,98854.22
2023-05-13T04:56:00.943Z,98847.97
2023-05-13T05:01:06.605Z,98847.91
2023-05-13T05:06:10.957Z,98857.38
2023-05-13T05:11:16.546Z,98862.88
2023-05-13T05:16:20.642Z,98867.00
2023-05-13T05:21:25.906Z,98878.28
2023-05-13T05:26:31.555Z,98876.03
2023-05-13T05:31:35.995Z,98873.44
2023-05-13T05:36:40.179Z,98872.56
2023-05-13T05:41:47.143Z,98885.22
2023-05-13T05:46:52.908Z,98892.03
2023-05-13T05:51:57.132Z,98903.41
2023-05-13T05:57:03.904Z,98910.66
2023-05-13T06:02:08.345Z,98904.44
2023-05-13T06:07:13.446Z,98912.00
2023-05-13T06:12:19.092Z,98915.19
2023-05-13T06:17:23.014Z,98913.34
2023-05-13T06:22:27.328Z,98916.19
2023-05-13T06:27:33.974Z,98918.06
2023-05-13T06:32:39.430Z,98915.28
2023-05-13T06:37:47.266Z,98924.78
2023-05-13T06:42:52.623Z,98923.03
2023-05-13T06:47:58.949Z,98921.72
2023-05-13T06:53:02.858Z,98927.56
2023-05-13T06:58:09.234Z,98930.28
2023-05-13T07:03:13.203Z,98931.84
2023-05-13T07:08:18.211Z,98916.56
2023-05-13T07:13:23.550Z,98925.78
2023-05-13T07:18:27.663Z,98923.97
2023-05-13T07:23:32.041Z,98933.41
2023-05-13T07:28:37.462Z,98932.66
2023-05-13T07:33:41.817Z,98914.75
2023-05-13T07:38:45.853Z,98925.00
2023-05-13T07:43:51.422Z,98925.31
2023-05-13T07:48:55.287Z,98927.63
2023-05-13T07:53:59.209Z,98945.00
2023-05-13T07:59:04.612Z,98927.63
2023-05-13T08:04:08.816Z,98938.22
2023-05-13T08:09:14.205Z,98924.06
2023-05-13T08:14:19.447Z,98923.50
2023-05-13T08:19:23.773Z,98923.97
2023-05-13T08:24:27.583Z,98927.06
2023-05-13T08:29:33.358Z,98931.78
2023-05-13T08:34:37.146Z,98945.81
2023-05-13T08:39:41.178Z,98949.06
2023-05-13T08:44:47.588Z,98948.25
2023-05-13T08:49:51.614Z,98957.16
2023-05-13T08:54:56.059Z,98958.00
2023-05-13T09:00:01.592Z,98950.75
2023-05-13T09:05:08.766Z,98953.56
2023-05-13T09:10:13.070Z,98944.03
2023-05-13T09:15:19.863Z,98944.44
2023-05-13T09:20:25.490Z,98962.94
2023-05-13T09:25:30.192Z,98950.16
2023-05-13T09:30:38.512Z,98953.41
2023-05-13T09:35:44.195Z,98939.78
2023-05-13T09:40:52.732Z,98947.41
2023-05-13T09:46:03.256Z,98942.13
2023-05-13T09:51:07.509Z,98940.78
2023-05-13T09:56:11.395Z,98936.75
2023-05-13T10:01:17.377Z,98931.94
2023-05-13T10:06:23.784Z,98916.41
2023-05-13T10:11:29.270Z,98916.66
2023-05-13T10:16:34.863Z,98913.16
2023-05-13T10:21:39.563Z,98922.69
2023-05-13T10:26:43.807Z,98915.44
2023-05-13T10:31:50.404Z,98911.34
2023-05-13T10:37:10.727Z,98905.25
2023-05-13T10:42:38.981Z,98914.69
2023-05-13T10:47:44.235Z,98924.78
2023-05-13T10:52:48.827Z,98911.50
2023-05-13T10:58:08.432Z,98914.81
2023-05-13T11:03:16.340Z,98912.56
2023-05-13T11:08:40.464Z,98914.25
2023-05-13T11:13:45.165Z,98913.91
2023-05-13T11:18:50.603Z,98906.97
2023-05-13T11:23:57.666Z,98923.72
2023-05-13T11:29:05.642Z,98910.38
2023-05-13T11:34:12.655Z,98907.25
2023-05-13T11:39:18.600Z,98909.75
2023-05-13T11:44:24.261Z,98925.28
2023-05-13T11:49:38.951Z,98909.72
2023-05-13T11:54:44.667Z,98911.78
2023-05-13T11:59:53.068Z,98903.31
2023-05-13T12:05:01.317Z,98898.63
2023-05-13T12:10:06.980Z,98903.00
2023-05-13T12:15:13.023Z,98893.41
2023-05-13T12:20:19.571Z,98911.06
2023-05-13T12:25:46.718Z,98891.00
2023-05-13T12:30:53.354Z,98900.56
2023-05-13T12:36:17.557Z,98908.38
2023-05-13T12:41:22.874Z,98906.31
2023-05-13T12:46:27.520Z,98906.63
2023-05-13T12:51:33.691Z,98908.00
2023-05-13T12:56:37.780Z,98909.78
2023-05-13T13:01:43.074Z,98911.31
2023-05-13T13:06:48.737Z,98899.22
2023-05-13T13:11:53.269Z,98893.00
2023-05-13T13:16:57.321Z,98888.28
2023-05-13T13:22:03.013Z,98893.34
2023-05-13T13:27:07.425Z,98879.38
2023-05-13T13:32:11.526Z,98876.16
2023-05-13T13:37:16.926Z,98874.97
2023-05-13T13:42:24.928Z,98872.97
2023-05-13T13:47:29.223Z,98872.75
2023-05-13T13:52:34.882Z,98890.03
2023-05-13T13:57:38.916Z,98903.25
2023-05-13T14:02:43.163Z,98898.91
2023-05-13T14:07:49.832Z,98894.03
2023-05-13T14:12:53.686Z,98893.75
2023-05-13T14:17:58.768Z,98886.69
2023-05-13T14:23:05.552Z,98893.50
2023-05-13T14:28:10.203Z,98894.00
2023-05-13T14:33:14.286Z,98896.53
2023-05-13T14:38:20.454Z,98899.44
2023-05-13T14:43:25.017Z,98900.66
2023-05-13T14:48:28.950Z,98900.81
2023-05-13T14:53:34.560Z,98905.66
2023-05-13T14:58:38.705Z,98897.41
2023-05-13T15:03:42.743Z,98885.94
2023-05-13T15:08:48.536Z,98881.94
2023-05-13T15:13:52.613Z,98892.97
2023-05-13T15:18:56.772Z,98885.31
2023-05-13T15:24:02.402Z,98882.06
2023-05-13T15:29:06.496Z,98883.22
2023-05-13T15:34:10.632Z,98874.50
2023-05-13T15:39:16.590Z,98874.84
2023-05-13T15:44:21.339Z,98880.63
2023-05-13T15:49:25.758Z,98871.72
2023-05-13T15:54:31.178Z,98868.63
2023-05-13T15:59:36.032Z,98858.94
2023-05-13T16:04:40.395Z,98852.53
2023-05-13T16:09:45.823Z,98854.00
2023-05-13T16:14:49.650Z,98837.97
2023-05-13T16:19:53.974Z,98839.22
2023-05-13T16:25:01.886Z,98837.28
2023-05-13T16:30:08.152Z,98836.31
2023-05-13T16:35:12.657Z,98845.91
2023-05-13T16:40:18.596Z,98836.59
2023-05-13T16:45:22.842Z,98843.50
2023-05-13T16:50:27.446Z,98837.44
2023-05-13T16:55:33.061Z,98838.06
2023-05-13T17:00:37.098Z,98835.00
2023-05-13T17:05:41.465Z,98830.13
2023-05-13T17:10:46.868Z,98831.94
2023-05-13T17:15:50.914Z,98830.91
2023-05-13T17:20:55.348Z,98831.09
2023-05-13T17:26:00.750Z,98832.91
2023-05-13T17:31:06.481Z,98832.66
2023-05-13T17:36:11.021Z,98825.50
2023-05-13T17:41:16.870Z,98817.75
2023-05-13T17:46:20.989Z,98814.66
2023-05-13T17:51:24.791Z,98820.88
2023-05-13T17:56:29.950Z,98812.72
2023-05-13T18:01:34.063Z,98815.06
2023-05-13T18:06:38.374Z,98806.06
2023-05-13T18:11:43.798Z,98794.41
2023-05-13T18:16:48.052Z,98794.81
2023-05-13T18:21:52.014Z,98793.03
2023-05-13T18:26:57.263Z,98809.69
2023-05-13T18:32:01.679Z,98810.13
2023-05-13T18:37:06.507Z,98816.00
2023-05-13T18:42:12.517Z,98821.22
2023-05-13T18:47:19.574Z,98827.66
2023-05-13T18:52:23.797Z,98819.84
2023-05-13T18:57:29.429Z,98823.25
2023-05-13T19:02:35.029Z,98824.94
2023-05-13T19:07:39.423Z,98830.63
2023-05-13T19:12:44.855Z,98828.69
2023-05-13T19:17:48.805Z,98840.75
2023-05-13T19:22:52.855Z,98842.19
2023-05-13T19:27:58.542Z,98844.72
2023-05-13T19:33:02.538Z,98850.47
2023-05-13T19:38:06.653Z,98858.25
2023-05-13T19:43:12.631Z,98860.94
2023-05-13T19:48:16.672Z,98865.56
2023-05-13T19:53:22.091Z,98856.75
2023-05-13T19:58:28.532Z,98858.56
2023-05-13T20:03:32.634Z,98854.50
2023-05-13T20:08:36.516Z,98861.69
2023-05-13T20:13:41.922Z,98863.00
2023-05-13T20:18:46.299Z,98856.66
2023-05-13T20:23:50.686Z,98856.63
2023-05-13T20:28:57.637Z,98848.44
2023-05-13T20:34:03.480Z,98846.13
2023-05-13T20:39:08.074Z,98845.97
2023-05-13T20:44:15.866Z,98845.00
2023-05-13T20:49:20.232Z,98837.78
2023-05-13T20:54:24.245Z,98841.72
2023-05-13T20:59:29.625Z,98834.22
2023-05-13T21:04:33.420Z,98837.31
2023-05-13T21:09:37.600Z,98833.91
2023-05-13T21:14:42.998Z,98824.47
2023-05-13T21:19:47.288Z,98839.31
2023-05-13T21:24:51.548Z,98839.13
2023-05-13T21:29:56.897Z,98846.66
2023-05-13T21:35:01.144Z,98838.81
2023-05-13T21:40:06.843Z,98843.38
2023-05-13T21:45:15.017Z,98837.19
2023-05-13T21:50:19.173Z,98844.50
2023-05-13T21:55:23.239Z,98835.00
2023-05-13T22:00:28.760Z,98829.91
2023-05-13T22:05:32.719Z,98838.06
2023-05-13T22:11:02.625Z,98829.38
2023-05-13T22:16:08.424Z,98820.38
2023-05-13T22:21:12.558Z,98821.41
2023-05-13T22:26:16.584Z,98817.63
2023-05-13T22:31:21.777Z,98823.06
2023-05-13T22:36:25.605Z,98811.63
2023-05-13T22:41:29.473Z,98816.31
2023-05-13T22:46:35.135Z,98818.56
2023-05-13T22:51:39.016Z,98824.50
2023-05-13T22:56:43.179Z,98818.72
2023-05-13T23:01:48.820Z,98808.88
2023-05-13T23:06:52.695Z,98811.94
2023-05-13T23:11:58.894Z,98794.84
2023-05-13T23:17:04.519Z,98793.41
2023-05-13T23:22:08.424Z,98792.94
2023-05-13T23:27:12.601Z,98787.53
2023-05-13T23:32:19.097Z,98789.22
2023-05-13T23:37:23.140Z,98785.78
2023-05-13T23:42:27.190Z,98778.03
2023-05-13T23:47:32.756Z,98774.00
2023-05-13T23:52:36.943Z,98773.34
2023-05-13T23:57:41.305Z,98770.09
